Isle Of Innisfree — EIBW — position and weather

sailwx.info

Track history (hours):
 
Tides and Currents Weather Stations Pressure Air Temp Water Temp Dewpoint Dewpoint Depression Visibility Wind Speed Wind Dir Waves Ship Positions

Isle Of Innisfree

Operator: Irish Ferries

Last reported at 2019-Jul-18 03:34 UTC. Time now 2019-Jul-20 00:57 UTC.
Position N 48°06' W 004°33'.

Length 36 m; draft 6.6 m.

Type: Fishing. MMSI: 250102800.

Date/timePositionNaut miles runAvg speedWind from/ knotsBaromVisibWave heightAir tempDewpointWater temp
2019-Jul-18 03:34N 48°06' W 004°33'1 9.4
2019-Jul-18 03:30N 48°06' W 004°32'5 9.4
2019-Jul-18 03:00N 48°07' W 004°25'4 8.6
2019-Jul-18 02:31N 48°06' W 004°19'0 0.8
2019-Jul-18 02:01N 48°06' W 004°20'0 0.0
2019-Jul-18 01:30N 48°06' W 004°20'0 0.0
2019-Jul-18 01:00N 48°06' W 004°20'0 0.2
2019-Jul-18 00:30N 48°06' W 004°19'0 0.0
2019-Jul-18 00:01N 48°06' W 004°19'0 0.0
2019-Jul-17 23:31N 48°06' W 004°19'0 0.0
2019-Jul-17 23:01N 48°06' W 004°19'0 0.0
2019-Jul-17 22:30N 48°06' W 004°19'0 0.0
2019-Jul-17 22:00N 48°06' W 004°20'0 0.0
2019-Jul-17 21:30N 48°06' W 004°19'0 0.0
2019-Jul-17 21:00N 48°06' W 004°19'0 0.0
2019-Jul-17 20:30N 48°06' W 004°19'0 0.0
2019-Jul-17 20:00N 48°06' W 004°19'0 0.1
2019-Jul-17 19:30N 48°06' W 004°19'4 8.7
2019-Jul-17 19:00N 48°07' W 004°26'510.1
2019-Jul-17 18:30N 48°06' W 004°33'510.4
2019-Jul-17 18:00N 48°05' W 004°41'4 8.2
2019-Jul-17 17:30N 48°03' W 004°46'  
2019-Jul-09 18:01N 48°06' W 004°33'0 9.7
2019-Jul-09 17:59N 48°06' W 004°33'3 3.7
2019-Jul-09 17:15N 48°07' W 004°29'2 9.1
2019-Jul-09 17:01N 48°07' W 004°26'4 8.9
2019-Jul-09 16:30N 48°06' W 004°19'0 0.8
2019-Jul-09 16:00N 48°06' W 004°20'0 0.0
2019-Jul-09 15:30N 48°06' W 004°20'0 0.0
2019-Jul-09 15:01N 48°06' W 004°20'0 0.0
2019-Jul-09 14:31N 48°06' W 004°20'0 0.0
2019-Jul-09 14:00N 48°06' W 004°20'0 0.0
2019-Jul-09 13:30N 48°06' W 004°20'0 0.0
2019-Jul-09 13:00N 48°06' W 004°20'0 0.0
2019-Jul-09 12:30N 48°06' W 004°20'0 0.0
2019-Jul-09 12:00N 48°06' W 004°20'0 0.0
2019-Jul-09 11:31N 48°06' W 004°20'0 0.0
2019-Jul-09 11:01N 48°06' W 004°20'0 0.0
2019-Jul-09 10:30N 48°06' W 004°20'0 0.0
2019-Jul-09 10:00N 48°06' W 004°20'0 0.0
2019-Jul-09 09:31N 48°06' W 004°20'0 0.0
2019-Jul-09 09:00N 48°06' W 004°20'0 0.0
2019-Jul-09 08:30N 48°06' W 004°20'0 0.0
2019-Jul-09 08:00N 48°06' W 004°20'0 0.0
2019-Jul-09 07:31N 48°06' W 004°20'0 0.0
2019-Jul-09 07:00N 48°06' W 004°20'0 0.0
2019-Jul-09 06:30N 48°06' W 004°20'0 0.0
2019-Jul-09 06:00N 48°06' W 004°20'0 0.0
2019-Jul-09 05:31N 48°06' W 004°20'0 0.0
2019-Jul-09 05:01N 48°06' W 004°20'0 0.0
2019-Jul-09 04:30N 48°06' W 004°20'0 0.0
2019-Jul-09 04:00N 48°06' W 004°20'0 0.0
2019-Jul-09 03:30N 48°06' W 004°20'0 0.0
2019-Jul-09 03:01N 48°06' W 004°20'0 0.0
2019-Jul-09 02:31N 48°06' W 004°20'0 0.0
2019-Jul-09 02:00N 48°06' W 004°20'0 0.0
2019-Jul-09 01:31N 48°06' W 004°20'0 0.0
2019-Jul-09 01:00N 48°06' W 004°20'0 0.0
2019-Jul-09 00:31N 48°06' W 004°20'0 0.0
2019-Jul-09 00:00N 48°06' W 004°20'0 0.0
2019-Jul-08 23:31N 48°06' W 004°20'0 0.0
2019-Jul-08 23:01N 48°06' W 004°20'0 0.0
2019-Jul-08 22:30N 48°06' W 004°20'0 0.0
2019-Jul-08 22:00N 48°06' W 004°20'0 0.0
2019-Jul-08 21:31N 48°06' W 004°20'0 0.0
2019-Jul-08 21:01N 48°06' W 004°20'0 0.0
2019-Jul-08 20:30N 48°06' W 004°20'0 0.0
2019-Jul-08 20:00N 48°06' W 004°20'0 0.0
2019-Jul-08 19:31N 48°06' W 004°20'0 0.0
2019-Jul-08 19:00N 48°06' W 004°20'0 0.0
2019-Jul-08 18:30N 48°06' W 004°20'0 0.0
2019-Jul-08 18:01N 48°06' W 004°20'0 0.1
2019-Jul-08 17:31N 48°06' W 004°19'0 0.0
2019-Jul-08 17:00N 48°06' W 004°19'0 0.0
2019-Jul-08 16:31N 48°06' W 004°19'0 0.0
2019-Jul-08 16:00N 48°06' W 004°19'0 0.0
2019-Jul-08 15:30N 48°06' W 004°19'0 0.0
2019-Jul-08 15:00N 48°06' W 004°19'0 0.0
2019-Jul-08 14:30N 48°06' W 004°19'0 0.0
2019-Jul-08 14:00N 48°06' W 004°19'0 0.0
2019-Jul-08 13:30N 48°06' W 004°19'0 0.0
2019-Jul-08 13:00N 48°06' W 004°19'0 0.0
2019-Jul-08 12:30N 48°06' W 004°19'0 0.0
2019-Jul-08 12:00N 48°06' W 004°19'0 0.0
2019-Jul-08 11:30N 48°06' W 004°19'0 0.0
2019-Jul-08 11:00N 48°06' W 004°19'0 0.0
2019-Jul-08 10:30N 48°06' W 004°19'0 0.0
2019-Jul-08 10:01N 48°06' W 004°19'0 0.0
2019-Jul-08 09:30N 48°06' W 004°19'0 0.0
2019-Jul-08 09:00N 48°06' W 004°19'0 0.0
2019-Jul-08 08:31N 48°06' W 004°19'0 0.0
2019-Jul-08 08:00N 48°06' W 004°19'0 0.0
2019-Jul-08 07:30N 48°06' W 004°19'0 0.0
2019-Jul-08 07:00N 48°06' W 004°19'0 0.0
2019-Jul-08 06:31N 48°06' W 004°19'0 0.0
2019-Jul-08 06:00N 48°06' W 004°19'0 0.0
2019-Jul-08 05:31N 48°06' W 004°19'0 0.0
2019-Jul-08 05:01N 48°06' W 004°19'0 0.0
2019-Jul-08 04:30N 48°06' W 004°19'0 0.0
2019-Jul-08 04:00N 48°06' W 004°19'  
Track history (hours):
 
Tides and Currents Weather Stations Pressure Air Temp Water Temp Dewpoint Dewpoint Depression Visibility Wind Speed Wind Dir Waves Ship Positions

Isle Of Innisfree

Operator: Irish Ferries

Last reported at 2019-Jul-18 03:34 UTC. Time now 2019-Jul-20 00:57 UTC.
Position N 48°06' W 004°33'.

Length 36 m; draft 6.6 m.

Type: Fishing. MMSI: 250102800.

Date/timePositionNaut miles runAvg speedWind from/ knotsBaromVisibWave heightAir tempDewpointWater temp
2019-Jul-18 03:34N 48°06' W 004°33'1 9.4
2019-Jul-18 03:30N 48°06' W 004°32'5 9.4
2019-Jul-18 03:00N 48°07' W 004°25'4 8.6
2019-Jul-18 02:31N 48°06' W 004°19'0 0.8
2019-Jul-18 02:01N 48°06' W 004°20'0 0.0
2019-Jul-18 01:30N 48°06' W 004°20'0 0.0
2019-Jul-18 01:00N 48°06' W 004°20'0 0.2
2019-Jul-18 00:30N 48°06' W 004°19'0 0.0
2019-Jul-18 00:01N 48°06' W 004°19'0 0.0
2019-Jul-17 23:31N 48°06' W 004°19'0 0.0
2019-Jul-17 23:01N 48°06' W 004°19'0 0.0
2019-Jul-17 22:30N 48°06' W 004°19'0 0.0
2019-Jul-17 22:00N 48°06' W 004°20'0 0.0
2019-Jul-17 21:30N 48°06' W 004°19'0 0.0
2019-Jul-17 21:00N 48°06' W 004°19'0 0.0
2019-Jul-17 20:30N 48°06' W 004°19'0 0.0
2019-Jul-17 20:00N 48°06' W 004°19'0 0.1
2019-Jul-17 19:30N 48°06' W 004°19'4 8.7
2019-Jul-17 19:00N 48°07' W 004°26'510.1
2019-Jul-17 18:30N 48°06' W 004°33'510.4
2019-Jul-17 18:00N 48°05' W 004°41'4 8.2
2019-Jul-17 17:30N 48°03' W 004°46'  
2019-Jul-09 18:01N 48°06' W 004°33'0 9.7
2019-Jul-09 17:59N 48°06' W 004°33'3 3.7
2019-Jul-09 17:15N 48°07' W 004°29'2 9.1
2019-Jul-09 17:01N 48°07' W 004°26'4 8.9
2019-Jul-09 16:30N 48°06' W 004°19'0 0.8
2019-Jul-09 16:00N 48°06' W 004°20'0 0.0
2019-Jul-09 15:30N 48°06' W 004°20'0 0.0
2019-Jul-09 15:01N 48°06' W 004°20'0 0.0
2019-Jul-09 14:31N 48°06' W 004°20'0 0.0
2019-Jul-09 14:00N 48°06' W 004°20'0 0.0
2019-Jul-09 13:30N 48°06' W 004°20'0 0.0
2019-Jul-09 13:00N 48°06' W 004°20'0 0.0
2019-Jul-09 12:30N 48°06' W 004°20'0 0.0
2019-Jul-09 12:00N 48°06' W 004°20'0 0.0
2019-Jul-09 11:31N 48°06' W 004°20'0 0.0
2019-Jul-09 11:01N 48°06' W 004°20'0 0.0
2019-Jul-09 10:30N 48°06' W 004°20'0 0.0
2019-Jul-09 10:00N 48°06' W 004°20'0 0.0
2019-Jul-09 09:31N 48°06' W 004°20'0 0.0
2019-Jul-09 09:00N 48°06' W 004°20'0 0.0
2019-Jul-09 08:30N 48°06' W 004°20'0 0.0
2019-Jul-09 08:00N 48°06' W 004°20'0 0.0
2019-Jul-09 07:31N 48°06' W 004°20'0 0.0
2019-Jul-09 07:00N 48°06' W 004°20'0 0.0
2019-Jul-09 06:30N 48°06' W 004°20'0 0.0
2019-Jul-09 06:00N 48°06' W 004°20'0 0.0
2019-Jul-09 05:31N 48°06' W 004°20'0 0.0
2019-Jul-09 05:01N 48°06' W 004°20'0 0.0
2019-Jul-09 04:30N 48°06' W 004°20'0 0.0
2019-Jul-09 04:00N 48°06' W 004°20'0 0.0
2019-Jul-09 03:30N 48°06' W 004°20'0 0.0
2019-Jul-09 03:01N 48°06' W 004°20'0 0.0
2019-Jul-09 02:31N 48°06' W 004°20'0 0.0
2019-Jul-09 02:00N 48°06' W 004°20'0 0.0
2019-Jul-09 01:31N 48°06' W 004°20'0 0.0
2019-Jul-09 01:00N 48°06' W 004°20'0 0.0
2019-Jul-09 00:31N 48°06' W 004°20'0 0.0
2019-Jul-09 00:00N 48°06' W 004°20'0 0.0
2019-Jul-08 23:31N 48°06' W 004°20'0 0.0
2019-Jul-08 23:01N 48°06' W 004°20'0 0.0
2019-Jul-08 22:30N 48°06' W 004°20'0 0.0
2019-Jul-08 22:00N 48°06' W 004°20'0 0.0
2019-Jul-08 21:31N 48°06' W 004°20'0 0.0
2019-Jul-08 21:01N 48°06' W 004°20'0 0.0
2019-Jul-08 20:30N 48°06' W 004°20'0 0.0
2019-Jul-08 20:00N 48°06' W 004°20'0 0.0
2019-Jul-08 19:31N 48°06' W 004°20'0 0.0
2019-Jul-08 19:00N 48°06' W 004°20'0 0.0
2019-Jul-08 18:30N 48°06' W 004°20'0 0.0
2019-Jul-08 18:01N 48°06' W 004°20'0 0.1
2019-Jul-08 17:31N 48°06' W 004°19'0 0.0
2019-Jul-08 17:00N 48°06' W 004°19'0 0.0
2019-Jul-08 16:31N 48°06' W 004°19'0 0.0
2019-Jul-08 16:00N 48°06' W 004°19'0 0.0
2019-Jul-08 15:30N 48°06' W 004°19'0 0.0
2019-Jul-08 15:00N 48°06' W 004°19'0 0.0
2019-Jul-08 14:30N 48°06' W 004°19'0 0.0
2019-Jul-08 14:00N 48°06' W 004°19'0 0.0
2019-Jul-08 13:30N 48°06' W 004°19'0 0.0
2019-Jul-08 13:00N 48°06' W 004°19'0 0.0
2019-Jul-08 12:30N 48°06' W 004°19'0 0.0
2019-Jul-08 12:00N 48°06' W 004°19'0 0.0
2019-Jul-08 11:30N 48°06' W 004°19'0 0.0
2019-Jul-08 11:00N 48°06' W 004°19'0 0.0
2019-Jul-08 10:30N 48°06' W 004°19'0 0.0
2019-Jul-08 10:01N 48°06' W 004°19'0 0.0
2019-Jul-08 09:30N 48°06' W 004°19'0 0.0
2019-Jul-08 09:00N 48°06' W 004°19'0 0.0
2019-Jul-08 08:31N 48°06' W 004°19'0 0.0
2019-Jul-08 08:00N 48°06' W 004°19'0 0.0
2019-Jul-08 07:30N 48°06' W 004°19'0 0.0
2019-Jul-08 07:00N 48°06' W 004°19'0 0.0
2019-Jul-08 06:31N 48°06' W 004°19'0 0.0
2019-Jul-08 06:00N 48°06' W 004°19'0 0.0
2019-Jul-08 05:31N 48°06' W 004°19'0 0.0
2019-Jul-08 05:01N 48°06' W 004°19'0 0.0
2019-Jul-08 04:30N 48°06' W 004°19'0 0.0
2019-Jul-08 04:00N 48°06' W 004°19'  

Dump ship's entire track history